Kelsay, Texas
Current Conditions -  °F | °C
As of 9:55 AM on Tuesday 21 Oct 2014 (Local Time) from KBKS Reporting Station
Overcast Overcast  
Wind Chill: 72°   Ceiling: 4700
Heat Index: 72°   Visibility: 10mi
Dew Point: 69°   Wind: 8mph
Humidity: 89%   Direction: 20°NNE
Pressure: 30.01"   Gusts: NA
Location:  26.9826°N, 98.212°W
Report Text: KBKS 211455Z AUTO 02007KT 10SM BKN047 OVC080 22/21 A3001 RMK AO1 T02230205
Loading
Personal Weather Stations






























Interactive Weather Map
Tropical Storm Tracking
New forecast layout! Learn more

10-Day Weather Forecast

Advertisements
Track Severe Weather on mobile